^^
Grace C. Lehan Memorial Weather Station Historical Data
Daily Summary for February 8, 2021 Units:  Both    English   Metric
Daily Weekly Monthly Yearly
  High: Low: Average:
Temperature: 84.2 °F /  29 °C 61.5 °F /  16.4 °C 73.2 °F /  22.9 °C
Dew Point: 71.1 °F /  21.7 °C 59.5 °F /  15.3 °C 66.5 °F /  19.2 °C
Humidity: 96% 58.9% 81%
Wind Speed: 3.3mph /  5.3km/h - 0.5mph /  0.8km/h
Wind Gust: 14mph /  22.5km/h - -
Wind- - South
Pressure: 29.90 in /  1012.4 hPa 29.76 in /  1007.7 hPa -
Precipitation: 0.00 in /  0 mm    
 
 
Tabular Data for February 8, 2021
Time Temperature Dew Point Pressure Wind Wind Speed Wind Gust Humidity Rainfall Rate (Hourly) solar
00:09 63.3 °F /  17.4 °C 59.7 °F /  15.4 °C 29.90in /  1012.4hPa Calm     88% 0.00in /  0mm 0 W/m2
00:14 63.2 °F /  17.3 °C 59.6 °F /  15.3 °C 29.90in /  1012.4hPa Calm     88% 0.00in /  0mm 0 W/m2
00:19 63.1 °F /  17.3 °C 59.8 °F /  15.4 °C 29.90in /  1012.4hPa Calm     88.9% 0.00in /  0mm 0 W/m2
00:24 63 °F /  17.2 °C 59.7 °F /  15.4 °C 29.90in /  1012.4hPa Calm     89% 0.00in /  0mm 0 W/m2
00:29 62.9 °F /  17.2 °C 59.6 °F /  15.3 °C 29.90in /  1012.4hPa Calm     89% 0.00in /  0mm 0 W/m2
00:34 62.9 °F /  17.2 °C 59.6 °F /  15.3 °C 29.90in /  1012.4hPa Calm     89% 0.00in /  0mm 0 W/m2
00:39 62.7 °F /  17.1 °C 59.8 °F /  15.4 °C 29.90in /  1012.4hPa Calm     90% 0.00in /  0mm 0 W/m2
00:44 62.7 °F /  17.1 °C 59.7 °F /  15.4 °C 29.90in /  1012.4hPa Calm     90% 0.00in /  0mm 0 W/m2
00:49 62.7 °F /  17.1 °C 59.7 °F /  15.4 °C 29.90in /  1012.4hPa Calm     90% 0.00in /  0mm 0 W/m2
00:54 62.7 °F /  17.1 °C 59.8 °F /  15.4 °C 29.90in /  1012.4hPa Calm     90.4% 0.00in /  0mm 0 W/m2
00:59 62.7 °F /  17.1 °C 59.9 °F /  15.5 °C 29.90in /  1012.4hPa Calm     90.7% 0.00in /  0mm 0 W/m2
01:04 62.6 °F /  17 °C 59.9 °F /  15.5 °C 29.90in /  1012.4hPa Calm     91% 0.00in /  0mm 0 W/m2
01:09 62.6 °F /  17 °C 59.9 °F /  15.5 °C 29.90in /  1012.4hPa Calm     91% 0.00in /  0mm 0 W/m2
01:14 62.5 °F /  16.9 °C 59.8 °F /  15.4 °C 29.90in /  1012.4hPa Calm     91% 0.00in /  0mm 0 W/m2
01:19 62.5 °F /  16.9 °C 59.8 °F /  15.4 °C 29.90in /  1012.4hPa Calm     91% 0.00in /  0mm 0 W/m2
01:24 62.4 °F /  16.9 °C 59.7 °F /  15.4 °C 29.90in /  1012.4hPa Calm     91% 0.00in /  0mm 0 W/m2
01:29 62.3 °F /  16.8 °C 59.6 °F /  15.3 °C 29.90in /  1012.4hPa Calm     91% 0.00in /  0mm 0 W/m2
01:34 62.2 °F /  16.8 °C 59.6 °F /  15.3 °C 29.90in /  1012.4hPa Calm     91% 0.00in /  0mm 0 W/m2
01:39 62.2 °F /  16.8 °C 59.6 °F /  15.3 °C 29.89in /  1012.1hPa Calm     91% 0.00in /  0mm 0 W/m2
01:44 62.2 °F /  16.8 °C 59.5 °F /  15.3 °C 29.89in /  1012.1hPa Calm     91% 0.00in /  0mm 0 W/m2
01:49 62.1 °F /  16.7 °C 59.5 °F /  15.3 °C 29.89in /  1012.1hPa Calm     91% 0.00in /  0mm 0 W/m2
01:54 62.1 °F /  16.7 °C 59.6 °F /  15.3 °C 29.89in /  1012.1hPa Calm     91.6% 0.00in /  0mm 0 W/m2
01:59 62.1 °F /  16.7 °C 59.8 °F /  15.4 °C 29.89in /  1012.1hPa Calm     92% 0.00in /  0mm 0 W/m2
02:04 62.2 °F /  16.8 °C 59.8 °F /  15.4 °C 29.89in /  1012.1hPa Calm     92% 0.00in /  0mm 0 W/m2
02:09 62.2 °F /  16.8 °C 59.9 °F /  15.5 °C 29.88in /  1011.7hPa Calm     92% 0.00in /  0mm 0 W/m2
02:14 62.2 °F /  16.8 °C 59.9 °F /  15.5 °C 29.88in /  1011.7hPa Calm     92% 0.00in /  0mm 0 W/m2
02:19 62.2 °F /  16.8 °C 59.9 °F /  15.5 °C 29.88in /  1011.7hPa Calm     92% 0.00in /  0mm 0 W/m2
02:24 62.2 °F /  16.8 °C 59.8 °F /  15.4 °C 29.88in /  1011.7hPa Calm     92% 0.00in /  0mm 0 W/m2
02:29 62.2 °F /  16.8 °C 59.8 °F /  15.4 °C 29.88in /  1011.7hPa Calm     92% 0.00in /  0mm 0 W/m2
02:34 62.2 °F /  16.8 °C 59.8 °F /  15.4 °C 29.88in /  1011.7hPa Calm     92% 0.00in /  0mm 0 W/m2
02:39 62.2 °F /  16.8 °C 59.8 °F /  15.4 °C 29.88in /  1011.7hPa Calm     92% 0.00in /  0mm 0 W/m2
02:44 62.2 °F /  16.8 °C 59.8 °F /  15.4 °C 29.88in /  1011.7hPa Calm     92% 0.00in /  0mm 0 W/m2
02:49 62.1 °F /  16.7 °C 59.8 °F /  15.4 °C 29.88in /  1011.7hPa Calm     92% 0.00in /  0mm 0 W/m2
02:54 62.1 °F /  16.7 °C 59.7 °F /  15.4 °C 29.88in /  1011.7hPa Calm     92% 0.00in /  0mm 0 W/m2
02:59 62 °F /  16.7 °C 59.7 °F /  15.4 °C 29.88in /  1011.7hPa Calm     92% 0.00in /  0mm 0 W/m2
03:04 61.9 °F /  16.6 °C 59.7 °F /  15.4 °C 29.88in /  1011.7hPa Calm     92.5% 0.00in /  0mm 0 W/m2
03:09 61.9 °F /  16.6 °C 59.9 °F /  15.5 °C 29.88in /  1011.7hPa Calm     93% 0.00in /  0mm 0 W/m2
03:14 62 °F /  16.7 °C 59.9 °F /  15.5 °C 29.88in /  1011.7hPa Calm     93% 0.00in /  0mm 0 W/m2
03:19 62 °F /  16.7 °C 60 °F /  15.6 °C 29.88in /  1011.7hPa Calm     93% 0.00in /  0mm 0 W/m2
03:24 62 °F /  16.7 °C 60 °F /  15.6 °C 29.88in /  1011.7hPa Calm     93% 0.00in /  0mm 0 W/m2
03:29 62.1 °F /  16.7 °C 60.1 °F /  15.6 °C 29.88in /  1011.7hPa Calm     93% 0.00in /  0mm 0 W/m2
03:34 62.1 °F /  16.7 °C 60.1 °F /  15.6 °C 29.88in /  1011.7hPa Calm     93% 0.00in /  0mm 0 W/m2
03:39 62.1 °F /  16.7 °C 60.1 °F /  15.6 °C 29.88in /  1011.7hPa Calm     93% 0.00in /  0mm 0 W/m2
03:44 62.2 °F /  16.8 °C 60.2 °F /  15.7 °C 29.87in /  1011.4hPa Calm     93% 0.00in /  0mm 0 W/m2
03:49 62.2 °F /  16.8 °C 60.2 °F /  15.7 °C 29.87in /  1011.4hPa Calm     93% 0.00in /  0mm 0 W/m2
03:54 62.2 °F /  16.8 °C 60.1 °F /  15.6 °C 29.87in /  1011.4hPa Calm     93% 0.00in /  0mm 0 W/m2
03:59 62.1 °F /  16.7 °C 60.1 °F /  15.6 °C 29.87in /  1011.4hPa Calm     93% 0.00in /  0mm 0 W/m2
04:00 62.1 °F /  16.7 °C 60.1 °F /  15.6 °C 29.87in /  1011.4hPa Calm     93% 0.00in /  0mm 0 W/m2
04:09 62 °F /  16.7 °C 60 °F /  15.6 °C 29.87in /  1011.4hPa Calm     93.3% 0.00in /  0mm 0 W/m2
04:14 61.9 °F /  16.6 °C 59.9 °F /  15.5 °C 29.87in /  1011.4hPa Calm     93% 0.00in /  0mm 0 W/m2
04:19 61.8 °F /  16.6 °C 59.8 °F /  15.4 °C 29.86in /  1011.1hPa Calm     93% 0.00in /  0mm 0 W/m2
04:24 61.7 °F /  16.5 °C 59.7 °F /  15.4 °C 29.86in /  1011.1hPa Calm     93% 0.00in /  0mm 0 W/m2
04:29 61.7 °F /  16.5 °C 59.6 °F /  15.3 °C 29.86in /  1011.1hPa Calm     93% 0.00in /  0mm 0 W/m2
04:34 61.7 °F /  16.5 °C 59.9 °F /  15.5 °C 29.86in /  1011.1hPa Calm     93.9% 0.00in /  0mm 0 W/m2
04:39 61.7 °F /  16.5 °C 60 °F /  15.6 °C 29.86in /  1011.1hPa Calm     94% 0.00in /  0mm 0 W/m2
04:44 61.7 °F /  16.5 °C 59.9 °F /  15.5 °C 29.86in /  1011.1hPa Calm     94% 0.00in /  0mm 0 W/m2
04:49 61.6 °F /  16.4 °C 59.9 °F /  15.5 °C 29.86in /  1011.1hPa Calm     94% 0.00in /  0mm 0 W/m2
04:54 61.5 °F /  16.4 °C 59.8 °F /  15.4 °C 29.86in /  1011.1hPa Calm     94% 0.00in /  0mm 0 W/m2
04:59 61.5 °F /  16.4 °C 59.8 °F /  15.4 °C 29.86in /  1011.1hPa Calm     94% 0.00in /  0mm 0 W/m2
05:04 61.6 °F /  16.4 °C 59.9 °F /  15.5 °C 29.86in /  1011.1hPa Calm     94% 0.00in /  0mm 0 W/m2
05:09 61.7 °F /  16.5 °C 59.9 °F /  15.5 °C 29.86in /  1011.1hPa Calm     94% 0.00in /  0mm 0 W/m2
05:14 61.7 °F /  16.5 °C 60 °F /  15.6 °C 29.86in /  1011.1hPa Calm     94% 0.00in /  0mm 0 W/m2
05:19 61.8 °F /  16.6 °C 60 °F /  15.6 °C 29.86in /  1011.1hPa Calm     94% 0.00in /  0mm 0 W/m2
05:24 61.8 °F /  16.6 °C 60.1 °F /  15.6 °C 29.86in /  1011.1hPa Calm     94% 0.00in /  0mm 0 W/m2
05:29 61.9 °F /  16.6 °C 60.1 °F /  15.6 °C 29.86in /  1011.1hPa Calm     94% 0.00in /  0mm 0 W/m2
05:34 61.9 °F /  16.6 °C 60.4 °F /  15.8 °C 29.86in /  1011.1hPa Calm     94.7% 0.00in /  0mm 0 W/m2
05:39 62 °F /  16.7 °C 60.6 °F /  15.9 °C 29.86in /  1011.1hPa Calm     95% 0.00in /  0mm 0 W/m2
05:44 62 °F /  16.7 °C 60.6 °F /  15.9 °C 29.86in /  1011.1hPa Calm     95% 0.00in /  0mm 0 W/m2
05:49 62.1 °F /  16.7 °C 60.7 °F /  15.9 °C 29.86in /  1011.1hPa Calm     95% 0.00in /  0mm 0 W/m2
05:54 62.3 °F /  16.8 °C 60.8 °F /  16 °C 29.86in /  1011.1hPa Calm     95% 0.00in /  0mm 0 W/m2
05:59 62.5 °F /  16.9 °C 61 °F /  16.1 °C 29.86in /  1011.1hPa Calm     95% 0.00in /  0mm 0 W/m2
06:04 62.6 °F /  17 °C 61.1 °F /  16.2 °C 29.86in /  1011.1hPa Calm     95% 0.00in /  0mm 0 W/m2
06:09 62.6 °F /  17 °C 61.2 °F /  16.2 °C 29.86in /  1011.1hPa Calm     95% 0.00in /  0mm 0 W/m2
06:14 62.7 °F /  17.1 °C 61.2 °F /  16.2 °C 29.86in /  1011.1hPa Calm     95% 0.00in /  0mm 0 W/m2
06:19 62.7 °F /  17.1 °C 61.3 °F /  16.3 °C 29.86in /  1011.1hPa Calm     95% 0.00in /  0mm 0 W/m2
06:24 62.8 °F /  17.1 °C 61.3 °F /  16.3 °C 29.86in /  1011.1hPa Calm     95% 0.00in /  0mm 0 W/m2
06:29 62.9 °F /  17.2 °C 61.4 °F /  16.3 °C 29.86in /  1011.1hPa Calm     95% 0.00in /  0mm 0 W/m2
06:34 63 °F /  17.2 °C 61.6 °F /  16.4 °C 29.86in /  1011.1hPa Calm     95% 0.00in /  0mm 7 W/m2
06:39 63.1 °F /  17.3 °C 61.7 °F /  16.5 °C 29.86in /  1011.1hPa Calm     95% 0.00in /  0mm 12 W/m2
06:44 63.3 °F /  17.4 °C 61.8 °F /  16.6 °C 29.86in /  1011.1hPa Calm     95% 0.00in /  0mm 12 W/m2
06:49 63.4 °F /  17.4 °C 62 °F /  16.7 °C 29.87in /  1011.4hPa Calm     95% 0.00in /  0mm 12 W/m2
06:54 63.6 °F /  17.6 °C 62.4 °F /  16.9 °C 29.87in /  1011.4hPa Calm     95.9% 0.00in /  0mm 19 W/m2
06:59 63.8 °F /  17.7 °C 62.7 °F /  17.1 °C 29.87in /  1011.4hPa Calm     96% 0.00in /  0mm 26 W/m2
07:04 64 °F /  17.8 °C 62.8 °F /  17.1 °C 29.87in /  1011.4hPa Calm     96% 0.00in /  0mm 32 W/m2
07:09 64.2 °F /  17.9 °C 63 °F /  17.2 °C 29.87in /  1011.4hPa Calm     96% 0.00in /  0mm 46 W/m2
07:14 64.4 °F /  18 °C 63.2 °F /  17.3 °C 29.87in /  1011.4hPa Calm     96% 0.00in /  0mm 42 W/m2
07:19 64.6 °F /  18.1 °C 63.4 °F /  17.4 °C 29.87in /  1011.4hPa Calm     96% 0.00in /  0mm 32 W/m2
07:24 64.8 °F /  18.2 °C 63.6 °F /  17.6 °C 29.87in /  1011.4hPa Calm     96% 0.00in /  0mm 33 W/m2
07:29 64.9 °F /  18.3 °C 63.7 °F /  17.6 °C 29.87in /  1011.4hPa Calm     96% 0.00in /  0mm 44 W/m2
07:34 65.1 °F /  18.4 °C 63.9 °F /  17.7 °C 29.87in /  1011.4hPa Calm     96% 0.00in /  0mm 51 W/m2
07:39 65.2 °F /  18.4 °C 64.1 °F /  17.8 °C 29.87in /  1011.4hPa Calm     96% 0.00in /  0mm 42 W/m2
07:44 65.4 °F /  18.6 °C 64.3 °F /  17.9 °C 29.87in /  1011.4hPa Calm     96% 0.00in /  0mm 46 W/m2
07:49 65.6 °F /  18.7 °C 64.5 °F /  18.1 °C 29.87in /  1011.4hPa Calm     96% 0.00in /  0mm 40 W/m2
07:54 65.8 °F /  18.8 °C 64.7 °F /  18.2 °C 29.87in /  1011.4hPa Calm     96% 0.00in /  0mm 49 W/m2
07:59 66 °F /  18.9 °C 64.9 °F /  18.3 °C 29.87in /  1011.4hPa Calm     96% 0.00in /  0mm 69 W/m2
08:04 66.4 °F /  19.1 °C 65.2 °F /  18.4 °C 29.87in /  1011.4hPa Calm     96% 0.00in /  0mm 62 W/m2
08:09 66.5 °F /  19.2 °C 65.3 °F /  18.5 °C 29.87in /  1011.4hPa Calm     96% 0.00in /  0mm 62 W/m2
08:14 66.8 °F /  19.3 °C 65.6 °F /  18.7 °C 29.87in /  1011.4hPa Calm     96% 0.00in /  0mm 63 W/m2
08:19 67 °F /  19.4 °C 65.9 °F /  18.8 °C 29.87in /  1011.4hPa Calm     96% 0.00in /  0mm 76 W/m2
08:24 67.4 °F /  19.7 °C 66.2 °F /  19 °C 29.86in /  1011.1hPa Calm     96% 0.00in /  0mm 79 W/m2
08:29 67.7 °F /  19.8 °C 66.5 °F /  19.2 °C 29.86in /  1011.1hPa WSW 0.1mph /  0.2km/h 2mph /  3.2km/h 96% 0.00in /  0mm 132 W/m2
08:34 68.1 °F /  20.1 °C 66.9 °F /  19.4 °C 29.86in /  1011.1hPa Calm   2mph /  3.2km/h 96% 0.00in /  0mm 255 W/m2
08:39 68.6 °F /  20.3 °C 67.5 °F /  19.7 °C 29.86in /  1011.1hPa Calm     96% 0.00in /  0mm 334 W/m2
08:44 69.3 °F /  20.7 °C 68.1 °F /  20.1 °C 29.86in /  1011.1hPa Calm     96% 0.00in /  0mm 345 W/m2
08:49 70 °F /  21.1 °C 68.6 °F /  20.3 °C 29.86in /  1011.1hPa Calm     95.4% 0.00in /  0mm 413 W/m2
08:54 71 °F /  21.7 °C 69.2 °F /  20.7 °C 29.86in /  1011.1hPa Calm   1mph /  1.6km/h 94.1% 0.00in /  0mm 432 W/m2
08:59 72 °F /  22.2 °C 69.6 °F /  20.9 °C 29.86in /  1011.1hPa Calm   1mph /  1.6km/h 92% 0.00in /  0mm 450 W/m2
09:04 73.2 °F /  22.9 °C 69.8 °F /  21 °C 29.86in /  1011.1hPa Calm   1mph /  1.6km/h 89.1% 0.00in /  0mm 466 W/m2
09:09 74.4 °F /  23.6 °C 69.9 °F /  21.1 °C 29.86in /  1011.1hPa Calm   1mph /  1.6km/h 85.8% 0.00in /  0mm 475 W/m2
09:14 75.8 °F /  24.3 °C 70.3 °F /  21.3 °C 29.86in /  1011.1hPa Calm   1mph /  1.6km/h 83.3% 0.00in /  0mm 494 W/m2
09:19 76.9 °F /  24.9 °C 70.4 °F /  21.3 °C 29.86in /  1011.1hPa Calm   2mph /  3.2km/h 80.3% 0.00in /  0mm 508 W/m2
09:24 77.9 °F /  25.5 °C 69.3 °F /  20.7 °C 29.85in /  1010.7hPa SW 1.3mph /  2.1km/h 8mph /  12.9km/h 75.1% 0.00in /  0mm 527 W/m2
09:29 78.4 °F /  25.8 °C 68.7 °F /  20.4 °C 29.86in /  1011.1hPa WSW 0.3mph /  0.5km/h 8mph /  12.9km/h 72.2% 0.00in /  0mm 543 W/m2
09:34 78.8 °F /  26 °C 68.8 °F /  20.4 °C 29.86in /  1011.1hPa SSW 0.2mph /  0.3km/h 8mph /  12.9km/h 71.5% 0.00in /  0mm 552 W/m2
09:39 79.3 °F /  26.3 °C 68.7 °F /  20.4 °C 29.86in /  1011.1hPa WSW 0.5mph /  0.8km/h 6mph /  9.7km/h 70.2% 0.00in /  0mm 570 W/m2
09:44 79.7 °F /  26.5 °C 68.9 °F /  20.5 °C 29.86in /  1011.1hPa WSW 0.2mph /  0.3km/h 6mph /  9.7km/h 69.6% 0.00in /  0mm 584 W/m2
09:49 80.3 °F /  26.8 °C 69.3 °F /  20.7 °C 29.86in /  1011.1hPa SW 0.4mph /  0.6km/h 6mph /  9.7km/h 69.3% 0.00in /  0mm 601 W/m2
09:54 80.7 °F /  27.1 °C 69.2 °F /  20.7 °C 29.86in /  1011.1hPa SSW 0.5mph /  0.8km/h 6mph /  9.7km/h 67.9% 0.00in /  0mm 610 W/m2
09:59 81.2 °F /  27.3 °C 69.2 °F /  20.7 °C 29.86in /  1011.1hPa WSW 1.7mph /  2.7km/h 6mph /  9.7km/h 67% 0.00in /  0mm 628 W/m2
10:04 81.6 °F /  27.6 °C 69.1 °F /  20.6 °C 29.86in /  1011.1hPa WSW 1.4mph /  2.3km/h 6mph /  9.7km/h 66% 0.00in /  0mm 643 W/m2
10:09 81.9 °F /  27.7 °C 68.9 °F /  20.5 °C 29.85in /  1010.7hPa SW 0.2mph /  0.3km/h 6mph /  9.7km/h 64.8% 0.00in /  0mm 649 W/m2
10:14 82.4 °F /  28 °C 69.3 °F /  20.7 °C 29.85in /  1010.7hPa Calm   6mph /  9.7km/h 64.6% 0.00in /  0mm 659 W/m2
10:19 82.9 °F /  28.3 °C 69.2 °F /  20.7 °C 29.85in /  1010.7hPa WSW 0.3mph /  0.5km/h 6mph /  9.7km/h 63.5% 0.00in /  0mm 666 W/m2
10:24 83.2 °F /  28.4 °C 69.1 °F /  20.6 °C 29.85in /  1010.7hPa SSW 0.5mph /  0.8km/h 6mph /  9.7km/h 62.5% 0.00in /  0mm 675 W/m2
10:29 83.2 °F /  28.4 °C 69 °F /  20.6 °C 29.86in /  1011.1hPa SSW 0.7mph /  1.1km/h 6mph /  9.7km/h 62.2% 0.00in /  0mm 682 W/m2
10:34 83.3 °F /  28.5 °C 68.9 °F /  20.5 °C 29.86in /  1011.1hPa SSW 0.6mph /  1km/h 6mph /  9.7km/h 62% 0.00in /  0mm 691 W/m2
10:39 83.4 °F /  28.6 °C 69.1 °F /  20.6 °C 29.86in /  1011.1hPa SW 0.6mph /  1km/h 6mph /  9.7km/h 62.2% 0.00in /  0mm 696 W/m2
10:44 83.6 °F /  28.7 °C 69.3 °F /  20.7 °C 29.85in /  1010.7hPa SW 0.2mph /  0.3km/h 6mph /  9.7km/h 62.2% 0.00in /  0mm 708 W/m2
10:49 84 °F /  28.9 °C 69.4 °F /  20.8 °C 29.85in /  1010.7hPa SSW 1.6mph /  2.6km/h 7mph /  11.3km/h 61.6% 0.00in /  0mm 719 W/m2
10:54 84.1 °F /  28.9 °C 68.9 °F /  20.5 °C 29.85in /  1010.7hPa SW 1.2mph /  1.9km/h 7mph /  11.3km/h 60.4% 0.00in /  0mm 728 W/m2
10:59 84.2 °F /  29 °C 68.5 °F /  20.3 °C 29.85in /  1010.7hPa SSW 0.6mph /  1km/h 7mph /  11.3km/h 59.5% 0.00in /  0mm 733 W/m2
11:04 84 °F /  28.9 °C 68.5 °F /  20.3 °C 29.85in /  1010.7hPa WSW 0.4mph /  0.6km/h 7mph /  11.3km/h 59.7% 0.00in /  0mm 745 W/m2
11:08 84 °F /  28.9 °C 68.8 °F /  20.4 °C 29.85in /  1010.7hPa WSW 0.9mph /  1.4km/h 4mph /  6.4km/h 60.3% 0.00in /  0mm 747 W/m2
11:14 84 °F /  28.9 °C 68.1 °F /  20.1 °C 29.85in /  1010.7hPa South 1.4mph /  2.3km/h 5mph /  8km/h 58.9% 0.00in /  0mm 761 W/m2
11:19 83.9 °F /  28.8 °C 68.8 °F /  20.4 °C 29.84in /  1010.4hPa SW 1.7mph /  2.7km/h 6mph /  9.7km/h 60.6% 0.00in /  0mm 761 W/m2
11:24 84 °F /  28.9 °C 68.4 °F /  20.2 °C 29.84in /  1010.4hPa South 1.4mph /  2.3km/h 6mph /  9.7km/h 59.6% 0.00in /  0mm 768 W/m2
11:29 83.7 °F /  28.7 °C 68.6 °F /  20.3 °C 29.84in /  1010.4hPa SSW 1.2mph /  1.9km/h 7mph /  11.3km/h 60.4% 0.00in /  0mm 775 W/m2
11:34 83.7 °F /  28.7 °C 69 °F /  20.6 °C 29.84in /  1010.4hPa South 0.9mph /  1.4km/h 7mph /  11.3km/h 61.3% 0.00in /  0mm 782 W/m2
11:39 83.7 °F /  28.7 °C 68.6 °F /  20.3 °C 29.84in /  1010.4hPa South 0.9mph /  1.4km/h 5mph /  8km/h 60.6% 0.00in /  0mm 777 W/m2
11:44 83.5 °F /  28.6 °C 69 °F /  20.6 °C 29.84in /  1010.4hPa SW 0.8mph /  1.3km/h 6mph /  9.7km/h 61.7% 0.00in /  0mm 789 W/m2
11:49 83.4 °F /  28.6 °C 69 °F /  20.6 °C 29.84in /  1010.4hPa South 0.9mph /  1.4km/h 6mph /  9.7km/h 62% 0.00in /  0mm 786 W/m2
11:54 83.1 °F /  28.4 °C 68.7 °F /  20.4 °C 29.84in /  1010.4hPa South 1.7mph /  2.7km/h 6mph /  9.7km/h 61.8% 0.00in /  0mm 675 W/m2
11:59 82.8 °F /  28.2 °C 68.8 °F /  20.4 °C 29.83in /  1010hPa South 1.1mph /  1.8km/h 6mph /  9.7km/h 62.8% 0.00in /  0mm 179 W/m2
12:00 82.7 °F /  28.2 °C 68.8 °F /  20.4 °C 29.83in /  1010hPa Calm   6mph /  9.7km/h 63% 0.00in /  0mm 128 W/m2
12:09 82.4 °F /  28 °C 68.6 °F /  20.3 °C 29.83in /  1010hPa South 1.4mph /  2.3km/h 6mph /  9.7km/h 63.2% 0.00in /  0mm 172 W/m2
12:14 82.3 °F /  27.9 °C 68.1 °F /  20.1 °C 29.83in /  1010hPa South 2.4mph /  3.9km/h 7mph /  11.3km/h 62.4% 0.00in /  0mm 146 W/m2
12:19 82.1 °F /  27.8 °C 68.1 °F /  20.1 °C 29.82in /  1009.7hPa South 1.9mph /  3.1km/h 7mph /  11.3km/h 62.7% 0.00in /  0mm 176 W/m2
12:24 82 °F /  27.8 °C 68.5 °F /  20.3 °C 29.82in /  1009.7hPa SSW 1.2mph /  1.9km/h 7mph /  11.3km/h 63.7% 0.00in /  0mm 220 W/m2
12:29 81.8 °F /  27.7 °C 67.4 °F /  19.7 °C 29.82in /  1009.7hPa South 2.2mph /  3.5km/h 8mph /  12.9km/h 61.8% 0.00in /  0mm 207 W/m2
12:34 81.5 °F /  27.5 °C 67 °F /  19.4 °C 29.82in /  1009.7hPa South 2.3mph /  3.7km/h 11mph /  17.7km/h 61.6% 0.00in /  0mm 264 W/m2
12:39 81.5 °F /  27.5 °C 67.3 °F /  19.6 °C 29.82in /  1009.7hPa South 2.6mph /  4.2km/h 11mph /  17.7km/h 62.2% 0.00in /  0mm 135 W/m2
12:44 81.6 °F /  27.6 °C 67.2 °F /  19.6 °C 29.82in /  1009.7hPa South 3.2mph /  5.1km/h 12mph /  19.3km/h 61.8% 0.00in /  0mm 123 W/m2
12:49 81.6 °F /  27.6 °C 67.8 °F /  19.9 °C 29.82in /  1009.7hPa SSW 1mph /  1.6km/h 12mph /  19.3km/h 63% 0.00in /  0mm 116 W/m2
12:54 81.8 °F /  27.7 °C 68 °F /  20 °C 29.82in /  1009.7hPa SSW 1.4mph /  2.3km/h 12mph /  19.3km/h 62.8% 0.00in /  0mm 441 W/m2
12:59 82 °F /  27.8 °C 67.6 °F /  19.8 °C 29.82in /  1009.7hPa SSW 1.1mph /  1.8km/h 12mph /  19.3km/h 61.8% 0.00in /  0mm 327 W/m2
13:04 82.1 °F /  27.8 °C 67.8 °F /  19.9 °C 29.81in /  1009.4hPa SSW 1.4mph /  2.3km/h 12mph /  19.3km/h 62% 0.00in /  0mm 724 W/m2
13:09 82 °F /  27.8 °C 67.1 °F /  19.5 °C 29.81in /  1009.4hPa South 2.4mph /  3.9km/h 12mph /  19.3km/h 60.7% 0.00in /  0mm 283 W/m2
13:14 81.8 °F /  27.7 °C 67.1 °F /  19.5 °C 29.81in /  1009.4hPa South 2.3mph /  3.7km/h 12mph /  19.3km/h 61% 0.00in /  0mm 229 W/m2
13:19 81.6 °F /  27.6 °C 66.9 °F /  19.4 °C 29.81in /  1009.4hPa South 1.3mph /  2.1km/h 12mph /  19.3km/h 61% 0.00in /  0mm 274 W/m2
13:24 81.6 °F /  27.6 °C 67.3 °F /  19.6 °C 29.81in /  1009.4hPa South 0.9mph /  1.4km/h 12mph /  19.3km/h 61.9% 0.00in /  0mm 262 W/m2
13:29 81.7 °F /  27.6 °C 67.4 °F /  19.7 °C 29.81in /  1009.4hPa SW 0.8mph /  1.3km/h 12mph /  19.3km/h 61.9% 0.00in /  0mm 227 W/m2
13:34 81.8 °F /  27.7 °C 67.3 °F /  19.6 °C 29.81in /  1009.4hPa SSW 0.4mph /  0.6km/h 12mph /  19.3km/h 61.5% 0.00in /  0mm 251 W/m2
13:39 82.1 °F /  27.8 °C 67.7 °F /  19.8 °C 29.81in /  1009.4hPa South 1.3mph /  2.1km/h 9mph /  14.5km/h 61.8% 0.00in /  0mm 239 W/m2
13:44 82.4 °F /  28 °C 67.5 °F /  19.7 °C 29.81in /  1009.4hPa South 0.9mph /  1.4km/h 9mph /  14.5km/h 60.9% 0.00in /  0mm 176 W/m2
13:49 82.6 °F /  28.1 °C 68.2 °F /  20.1 °C 29.81in /  1009.4hPa SSW 0.3mph /  0.5km/h 9mph /  14.5km/h 62% 0.00in /  0mm 155 W/m2
13:54 82.7 °F /  28.2 °C 67.9 °F /  19.9 °C 29.81in /  1009.4hPa South 1.7mph /  2.7km/h 9mph /  14.5km/h 61.1% 0.00in /  0mm 214 W/m2
13:59 82.5 °F /  28.1 °C 67.7 °F /  19.8 °C 29.81in /  1009.4hPa South 1.5mph /  2.4km/h 9mph /  14.5km/h 61% 0.00in /  0mm 206 W/m2
14:04 82.4 °F /  28 °C 68 °F /  20 °C 29.81in /  1009.4hPa SSE 1.1mph /  1.8km/h 9mph /  14.5km/h 61.7% 0.00in /  0mm 230 W/m2
14:09 82.3 °F /  27.9 °C 68.1 °F /  20.1 °C 29.80in /  1009hPa SSE 0.7mph /  1.1km/h 6mph /  9.7km/h 62.3% 0.00in /  0mm 267 W/m2
14:14 82.2 °F /  27.9 °C 67.8 °F /  19.9 °C 29.80in /  1009hPa South 1.5mph /  2.4km/h 9mph /  14.5km/h 61.8% 0.00in /  0mm 167 W/m2
14:19 82.1 °F /  27.8 °C 67.7 °F /  19.8 °C 29.80in /  1009hPa South 1.6mph /  2.6km/h 9mph /  14.5km/h 61.8% 0.00in /  0mm 227 W/m2
14:24 82.1 °F /  27.8 °C 67.7 °F /  19.8 °C 29.80in /  1009hPa South 2.1mph /  3.4km/h 10mph /  16.1km/h 61.9% 0.00in /  0mm 847 W/m2
14:29 81.9 °F /  27.7 °C 67.4 °F /  19.7 °C 29.80in /  1009hPa South 1.3mph /  2.1km/h 10mph /  16.1km/h 61.4% 0.00in /  0mm 174 W/m2
14:34 81.8 °F /  27.7 °C 67.6 °F /  19.8 °C 29.80in /  1009hPa South 1mph /  1.6km/h 10mph /  16.1km/h 62.2% 0.00in /  0mm 195 W/m2
14:39 81.7 °F /  27.6 °C 67.6 °F /  19.8 °C 29.80in /  1009hPa South 1.5mph /  2.4km/h 11mph /  17.7km/h 62.4% 0.00in /  0mm 232 W/m2
14:44 81.5 °F /  27.5 °C 67.8 °F /  19.9 °C 29.80in /  1009hPa SSW 1.7mph /  2.7km/h 11mph /  17.7km/h 63.3% 0.00in /  0mm 225 W/m2
14:49 81.4 °F /  27.4 °C 68.2 °F /  20.1 °C 29.80in /  1009hPa South 1mph /  1.6km/h 11mph /  17.7km/h 64.4% 0.00in /  0mm 258 W/m2
14:54 81.3 °F /  27.4 °C 67.4 °F /  19.7 °C 29.79in /  1008.7hPa SSW 2.4mph /  3.9km/h 11mph /  17.7km/h 62.7% 0.00in /  0mm 747 W/m2
14:59 81.4 °F /  27.4 °C 67.7 °F /  19.8 °C 29.79in /  1008.7hPa SSW 1mph /  1.6km/h 11mph /  17.7km/h 63.2% 0.00in /  0mm 754 W/m2
15:04 81.9 °F /  27.7 °C 68 °F /  20 °C 29.79in /  1008.7hPa South 1.1mph /  1.8km/h 11mph /  17.7km/h 63% 0.00in /  0mm 689 W/m2
15:09 82.1 °F /  27.8 °C 68.3 °F /  20.2 °C 29.78in /  1008.4hPa South 1.8mph /  2.9km/h 9mph /  14.5km/h 63% 0.00in /  0mm 686 W/m2
15:14 82.1 °F /  27.8 °C 68.7 °F /  20.4 °C 29.78in /  1008.4hPa SSW 2.4mph /  3.9km/h 13mph /  20.9km/h 63.9% 0.00in /  0mm 684 W/m2
15:19 82.2 °F /  27.9 °C 68.6 °F /  20.3 °C 29.78in /  1008.4hPa South 2mph /  3.2km/h 13mph /  20.9km/h 63.5% 0.00in /  0mm 687 W/m2
15:24 82.3 °F /  27.9 °C 68.7 °F /  20.4 °C 29.78in /  1008.4hPa South 3.3mph /  5.3km/h 14mph /  22.5km/h 63.5% 0.00in /  0mm 647 W/m2
15:29 82.2 °F /  27.9 °C 69.1 °F /  20.6 °C 29.77in /  1008hPa SSW 1mph /  1.6km/h 14mph /  22.5km/h 64.5% 0.00in /  0mm 650 W/m2
15:34 82.5 °F /  28.1 °C 69.7 °F /  20.9 °C 29.77in /  1008hPa SSW 0.8mph /  1.3km/h 14mph /  22.5km/h 65.4% 0.00in /  0mm 621 W/m2
15:39 82.6 °F /  28.1 °C 69.2 °F /  20.7 °C 29.77in /  1008hPa South 1.3mph /  2.1km/h 7mph /  11.3km/h 64% 0.00in /  0mm 694 W/m2
15:44 82.6 °F /  28.1 °C 69.1 °F /  20.6 °C 29.77in /  1008hPa South 2mph /  3.2km/h 12mph /  19.3km/h 63.8% 0.00in /  0mm 622 W/m2
15:49 82.3 °F /  27.9 °C 68.6 °F /  20.3 °C 29.77in /  1008hPa South 2.4mph /  3.9km/h 12mph /  19.3km/h 63.3% 0.00in /  0mm 346 W/m2
15:54 82 °F /  27.8 °C 69.3 °F /  20.7 °C 29.77in /  1008hPa SSW 0.6mph /  1km/h 12mph /  19.3km/h 65.5% 0.00in /  0mm 624 W/m2
15:59 82 °F /  27.8 °C 69.6 °F /  20.9 °C 29.77in /  1008hPa South 1.8mph /  2.9km/h 12mph /  19.3km/h 66.2% 0.00in /  0mm 599 W/m2
16:00 82 °F /  27.8 °C 69.5 °F /  20.8 °C 29.77in /  1008hPa South 1mph /  1.6km/h 12mph /  19.3km/h 66% 0.00in /  0mm 132 W/m2
16:09 81.6 °F /  27.6 °C 69.3 °F /  20.7 °C 29.76in /  1007.7hPa South 1.8mph /  2.9km/h 7mph /  11.3km/h 66.5% 0.00in /  0mm 158 W/m2
16:14 81.4 °F /  27.4 °C 69.8 °F /  21 °C 29.76in /  1007.7hPa South 0.5mph /  0.8km/h 8mph /  12.9km/h 68.1% 0.00in /  0mm 135 W/m2
16:19 81 °F /  27.2 °C 69.9 °F /  21.1 °C 29.76in /  1007.7hPa South 0.4mph /  0.6km/h 8mph /  12.9km/h 68.9% 0.00in /  0mm 128 W/m2
16:24 80.7 °F /  27.1 °C 70 °F /  21.1 °C 29.76in /  1007.7hPa South 1mph /  1.6km/h 8mph /  12.9km/h 69.9% 0.00in /  0mm 121 W/m2
16:29 80.5 °F /  26.9 °C 69.9 °F /  21.1 °C 29.76in /  1007.7hPa SSW 0.8mph /  1.3km/h 8mph /  12.9km/h 70.2% 0.00in /  0mm 121 W/m2
16:34 80.3 °F /  26.8 °C 69.9 °F /  21.1 °C 29.76in /  1007.7hPa Calm   8mph /  12.9km/h 70.7% 0.00in /  0mm 107 W/m2
16:39 80.3 °F /  26.8 °C 70.2 °F /  21.2 °C 29.76in /  1007.7hPa SSW 0.4mph /  0.6km/h 4mph /  6.4km/h 71.3% 0.00in /  0mm 93 W/m2
16:44 80.1 °F /  26.7 °C 70 °F /  21.1 °C 29.77in /  1008hPa SSW 2.1mph /  3.4km/h 10mph /  16.1km/h 71.3% 0.00in /  0mm 83 W/m2
16:49 79.8 °F /  26.6 °C 69.9 °F /  21.1 °C 29.77in /  1008hPa South 0.9mph /  1.4km/h 10mph /  16.1km/h 71.8% 0.00in /  0mm 90 W/m2
16:54 79.6 °F /  26.4 °C 70.2 °F /  21.2 °C 29.77in /  1008hPa South 0.3mph /  0.5km/h 10mph /  16.1km/h 72.9% 0.00in /  0mm 69 W/m2
16:59 79.5 °F /  26.4 °C 70.4 °F /  21.3 °C 29.77in /  1008hPa South 2mph /  3.2km/h 11mph /  17.7km/h 73.5% 0.00in /  0mm 123 W/m2
17:04 79.5 °F /  26.4 °C 70.1 °F /  21.2 °C 29.77in /  1008hPa South 1.8mph /  2.9km/h 11mph /  17.7km/h 73.2% 0.00in /  0mm 104 W/m2
17:09 79.4 °F /  26.3 °C 70.2 °F /  21.2 °C 29.77in /  1008hPa South 1.6mph /  2.6km/h 11mph /  17.7km/h 73.7% 0.00in /  0mm 111 W/m2
17:14 79.3 °F /  26.3 °C 70.3 °F /  21.3 °C 29.77in /  1008hPa South 2.4mph /  3.9km/h 12mph /  19.3km/h 74% 0.00in /  0mm 98 W/m2
17:19 79.2 °F /  26.2 °C 70.2 °F /  21.2 °C 29.77in /  1008hPa SSW 1.2mph /  1.9km/h 12mph /  19.3km/h 74% 0.00in /  0mm 84 W/m2
17:24 79.1 °F /  26.2 °C 70.2 °F /  21.2 °C 29.77in /  1008hPa South 1.6mph /  2.6km/h 12mph /  19.3km/h 74.2% 0.00in /  0mm 69 W/m2
17:29 79 °F /  26.1 °C 70.4 °F /  21.3 °C 29.77in /  1008hPa South 1.8mph /  2.9km/h 12mph /  19.3km/h 75% 0.00in /  0mm 70 W/m2
17:34 78.9 °F /  26.1 °C 70.4 °F /  21.3 °C 29.77in /  1008hPa South 1.1mph /  1.8km/h 12mph /  19.3km/h 75.2% 0.00in /  0mm 97 W/m2
17:39 78.9 °F /  26.1 °C 70.7 °F /  21.5 °C 29.78in /  1008.4hPa SSW 1.1mph /  1.8km/h 9mph /  14.5km/h 76% 0.00in /  0mm 76 W/m2
17:44 78.9 °F /  26.1 °C 70.8 °F /  21.6 °C 29.78in /  1008.4hPa South 0.6mph /  1km/h 9mph /  14.5km/h 76.4% 0.00in /  0mm 72 W/m2
17:49 78.8 °F /  26 °C 70.8 °F /  21.6 °C 29.78in /  1008.4hPa South 0.8mph /  1.3km/h 9mph /  14.5km/h 76.5% 0.00in /  0mm 46 W/m2
17:54 78.7 °F /  25.9 °C 70.8 °F /  21.6 °C 29.78in /  1008.4hPa South 1.9mph /  3.1km/h 9mph /  14.5km/h 77% 0.00in /  0mm 44 W/m2
17:59 78.5 °F /  25.8 °C 70.7 °F /  21.5 °C 29.78in /  1008.4hPa South 1.2mph /  1.9km/h 9mph /  14.5km/h 77% 0.00in /  0mm 44 W/m2
18:04 78.3 °F /  25.7 °C 70.7 °F /  21.5 °C 29.78in /  1008.4hPa South 1.1mph /  1.8km/h 9mph /  14.5km/h 77.6% 0.00in /  0mm 30 W/m2
18:09 78.1 °F /  25.6 °C 70.7 °F /  21.5 °C 29.78in /  1008.4hPa South 1.9mph /  3.1km/h 9mph /  14.5km/h 78% 0.00in /  0mm 32 W/m2
18:14 77.9 °F /  25.5 °C 70.6 °F /  21.4 °C 29.78in /  1008.4hPa South 0.6mph /  1km/h 9mph /  14.5km/h 78.2% 0.00in /  0mm 30 W/m2
18:19 77.8 °F /  25.4 °C 70.8 °F /  21.6 °C 29.78in /  1008.4hPa South 0.9mph /  1.4km/h 9mph /  14.5km/h 79% 0.00in /  0mm 30 W/m2
18:24 77.7 °F /  25.4 °C 70.6 °F /  21.4 °C 29.78in /  1008.4hPa South 0.2mph /  0.3km/h 9mph /  14.5km/h 79% 0.00in /  0mm 21 W/m2
18:29 77.6 °F /  25.3 °C 70.8 °F /  21.6 °C 29.78in /  1008.4hPa SSE 0.9mph /  1.4km/h 9mph /  14.5km/h 79.6% 0.00in /  0mm 23 W/m2
18:34 77.5 °F /  25.3 °C 70.6 °F /  21.4 °C 29.78in /  1008.4hPa SSW 1.2mph /  1.9km/h 9mph /  14.5km/h 79.6% 0.00in /  0mm 28 W/m2
18:39 77.4 °F /  25.2 °C 70.7 °F /  21.5 °C 29.78in /  1008.4hPa South 0.5mph /  0.8km/h 9mph /  14.5km/h 79.9% 0.00in /  0mm 26 W/m2
18:44 77.3 °F /  25.2 °C 70.6 °F /  21.4 °C 29.78in /  1008.4hPa South 0.7mph /  1.1km/h 9mph /  14.5km/h 80% 0.00in /  0mm 19 W/m2
18:49 77.1 °F /  25.1 °C 70.5 °F /  21.4 °C 29.78in /  1008.4hPa SSW 0.3mph /  0.5km/h 9mph /  14.5km/h 80% 0.00in /  0mm 18 W/m2
18:54 77 °F /  25 °C 70.4 °F /  21.3 °C 29.78in /  1008.4hPa South 0.9mph /  1.4km/h 9mph /  14.5km/h 80.1% 0.00in /  0mm 12 W/m2
18:59 76.9 °F /  24.9 °C 70.6 °F /  21.4 °C 29.77in /  1008hPa South 1.1mph /  1.8km/h 10mph /  16.1km/h 81% 0.00in /  0mm 5 W/m2
19:04 76.7 °F /  24.8 °C 70.5 °F /  21.4 °C 29.77in /  1008hPa South 0.4mph /  0.6km/h 10mph /  16.1km/h 81% 0.00in /  0mm 0 W/m2
19:09 76.6 °F /  24.8 °C 70.5 °F /  21.4 °C 29.76in /  1007.7hPa South 1mph /  1.6km/h 9mph /  14.5km/h 81.4% 0.00in /  0mm 0 W/m2
19:14 76.5 °F /  24.7 °C 70.6 °F /  21.4 °C 29.76in /  1007.7hPa South 1.2mph /  1.9km/h 9mph /  14.5km/h 82% 0.00in /  0mm 0 W/m2
19:19 76.3 °F /  24.6 °C 70.4 °F /  21.3 °C 29.76in /  1007.7hPa South 0.3mph /  0.5km/h 9mph /  14.5km/h 82% 0.00in /  0mm 0 W/m2
19:24 76.2 °F /  24.6 °C 70.3 °F /  21.3 °C 29.76in /  1007.7hPa South 0.5mph /  0.8km/h 9mph /  14.5km/h 82% 0.00in /  0mm 0 W/m2
19:29 76.1 °F /  24.5 °C 70.2 °F /  21.2 °C 29.76in /  1007.7hPa South 0.2mph /  0.3km/h 9mph /  14.5km/h 82% 0.00in /  0mm 0 W/m2
19:34 76 °F /  24.4 °C 70.3 °F /  21.3 °C 29.76in /  1007.7hPa South 0.1mph /  0.2km/h 9mph /  14.5km/h 82.4% 0.00in /  0mm 0 W/m2
19:39 75.9 °F /  24.4 °C 70.4 °F /  21.3 °C 29.76in /  1007.7hPa SE 0.1mph /  0.2km/h 2mph /  3.2km/h 83% 0.00in /  0mm 0 W/m2
19:44 75.8 °F /  24.3 °C 70.3 °F /  21.3 °C 29.76in /  1007.7hPa SSE 0.5mph /  0.8km/h 3mph /  4.8km/h 83% 0.00in /  0mm 0 W/m2
19:49 75.8 °F /  24.3 °C 70.3 °F /  21.3 °C 29.76in /  1007.7hPa South 0.4mph /  0.6km/h 3mph /  4.8km/h 83.2% 0.00in /  0mm 0 W/m2
19:54 75.8 °F /  24.3 °C 70.6 °F /  21.4 °C 29.76in /  1007.7hPa SSE 0.2mph /  0.3km/h 3mph /  4.8km/h 84% 0.00in /  0mm 0 W/m2
19:59 75.8 °F /  24.3 °C 70.6 °F /  21.4 °C 29.76in /  1007.7hPa SE 0.2mph /  0.3km/h 3mph /  4.8km/h 84% 0.00in /  0mm 0 W/m2
20:00 75.8 °F /  24.3 °C 70.6 °F /  21.4 °C 29.76in /  1007.7hPa Calm   3mph /  4.8km/h 84% 0.00in /  0mm 0 W/m2
20:09 75.8 °F /  24.3 °C 70.6 °F /  21.4 °C 29.76in /  1007.7hPa South 0.4mph /  0.6km/h 4mph /  6.4km/h 84% 0.00in /  0mm 0 W/m2
20:14 75.8 °F /  24.3 °C 70.6 °F /  21.4 °C 29.76in /  1007.7hPa SSE 0.3mph /  0.5km/h 4mph /  6.4km/h 84% 0.00in /  0mm 0 W/m2
20:19 75.8 °F /  24.3 °C 70.6 °F /  21.4 °C 29.76in /  1007.7hPa SE 0.4mph /  0.6km/h 4mph /  6.4km/h 84% 0.00in /  0mm 0 W/m2
20:24 75.8 °F /  24.3 °C 70.6 °F /  21.4 °C 29.77in /  1008hPa South 0.9mph /  1.4km/h 5mph /  8km/h 84% 0.00in /  0mm 0 W/m2
20:29 75.8 °F /  24.3 °C 70.7 °F /  21.5 °C 29.77in /  1008hPa South 0.6mph /  1km/h 9mph /  14.5km/h 84.3% 0.00in /  0mm 0 W/m2
20:34 75.7 °F /  24.3 °C 70.9 °F /  21.6 °C 29.76in /  1007.7hPa SSE 1.1mph /  1.8km/h 9mph /  14.5km/h 84.8% 0.00in /  0mm 0 W/m2
20:39 75.7 °F /  24.3 °C 70.8 °F /  21.6 °C 29.76in /  1007.7hPa South 0.4mph /  0.6km/h 6mph /  9.7km/h 84.8% 0.00in /  0mm 0 W/m2
20:44 75.7 °F /  24.3 °C 70.9 °F /  21.6 °C 29.76in /  1007.7hPa South 0.2mph /  0.3km/h 6mph /  9.7km/h 85% 0.00in /  0mm 0 W/m2
20:49 75.7 °F /  24.3 °C 70.9 °F /  21.6 °C 29.76in /  1007.7hPa South 0.3mph /  0.5km/h 6mph /  9.7km/h 85% 0.00in /  0mm 0 W/m2
20:54 75.7 °F /  24.3 °C 70.9 °F /  21.6 °C 29.77in /  1008hPa South 0.1mph /  0.2km/h 6mph /  9.7km/h 85% 0.00in /  0mm 0 W/m2
20:59 75.7 °F /  24.3 °C 70.9 °F /  21.6 °C 29.77in /  1008hPa South 0.2mph /  0.3km/h 6mph /  9.7km/h 85% 0.00in /  0mm 0 W/m2
21:04 75.7 °F /  24.3 °C 70.9 °F /  21.6 °C 29.77in /  1008hPa South 0.1mph /  0.2km/h 6mph /  9.7km/h 85% 0.00in /  0mm 0 W/m2
21:09 75.8 °F /  24.3 °C 71 °F /  21.7 °C 29.77in /  1008hPa SSW 0.3mph /  0.5km/h 4mph /  6.4km/h 85% 0.00in /  0mm 0 W/m2
21:14 75.8 °F /  24.3 °C 71 °F /  21.7 °C 29.78in /  1008.4hPa South 0.4mph /  0.6km/h 4mph /  6.4km/h 85% 0.00in /  0mm 0 W/m2
21:19 75.8 °F /  24.3 °C 71 °F /  21.7 °C 29.78in /  1008.4hPa South 0.1mph /  0.2km/h 4mph /  6.4km/h 85% 0.00in /  0mm 0 W/m2
21:24 75.8 °F /  24.3 °C 71 °F /  21.7 °C 29.78in /  1008.4hPa South 0.4mph /  0.6km/h 4mph /  6.4km/h 85% 0.00in /  0mm 0 W/m2
21:29 75.7 °F /  24.3 °C 70.9 °F /  21.6 °C 29.78in /  1008.4hPa SE 0.4mph /  0.6km/h 4mph /  6.4km/h 85% 0.00in /  0mm 0 W/m2
21:34 75.6 °F /  24.2 °C 70.8 °F /  21.6 °C 29.78in /  1008.4hPa Calm   4mph /  6.4km/h 85% 0.00in /  0mm 0 W/m2
21:39 75.6 °F /  24.2 °C 70.8 °F /  21.6 °C 29.78in /  1008.4hPa SSE 0.1mph /  0.2km/h 4mph /  6.4km/h 85% 0.00in /  0mm 0 W/m2
21:44 75.6 °F /  24.2 °C 70.7 °F /  21.5 °C 29.78in /  1008.4hPa SSE 0.4mph /  0.6km/h 4mph /  6.4km/h 85% 0.00in /  0mm 0 W/m2
21:49 75.5 °F /  24.2 °C 70.7 °F /  21.5 °C 29.78in /  1008.4hPa SSW 0.3mph /  0.5km/h 6mph /  9.7km/h 85% 0.00in /  0mm 0 W/m2
21:54 75.4 °F /  24.1 °C 70.9 °F /  21.6 °C 29.78in /  1008.4hPa South 0.3mph /  0.5km/h 6mph /  9.7km/h 85.9% 0.00in /  0mm 0 W/m2
21:59 75.4 °F /  24.1 °C 70.9 °F /  21.6 °C 29.78in /  1008.4hPa South 0.2mph /  0.3km/h 6mph /  9.7km/h 86% 0.00in /  0mm 0 W/m2
22:04 75.4 °F /  24.1 °C 70.9 °F /  21.6 °C 29.78in /  1008.4hPa Calm   6mph /  9.7km/h 86% 0.00in /  0mm 0 W/m2
22:09 75.3 °F /  24.1 °C 70.9 °F /  21.6 °C 29.78in /  1008.4hPa Calm   1mph /  1.6km/h 86% 0.00in /  0mm 0 W/m2
22:14 75.3 °F /  24.1 °C 70.8 °F /  21.6 °C 29.78in /  1008.4hPa SW 0.2mph /  0.3km/h 3mph /  4.8km/h 86% 0.00in /  0mm 0 W/m2
22:19 75.2 °F /  24 °C 70.8 °F /  21.6 °C 29.77in /  1008hPa South 0.4mph /  0.6km/h 6mph /  9.7km/h 86% 0.00in /  0mm 0 W/m2
22:24 75.2 °F /  24 °C 70.7 °F /  21.5 °C 29.77in /  1008hPa South 0.1mph /  0.2km/h 6mph /  9.7km/h 86% 0.00in /  0mm 0 W/m2
22:29 75.1 °F /  23.9 °C 70.7 °F /  21.5 °C 29.77in /  1008hPa Calm   6mph /  9.7km/h 86.3% 0.00in /  0mm 0 W/m2
22:34 75 °F /  23.9 °C 70.9 °F /  21.6 °C 29.77in /  1008hPa Calm   6mph /  9.7km/h 87% 0.00in /  0mm 0 W/m2
22:39 75 °F /  23.9 °C 70.8 °F /  21.6 °C 29.77in /  1008hPa Calm     87% 0.00in /  0mm 0 W/m2
22:44 74.9 °F /  23.8 °C 70.8 °F /  21.6 °C 29.78in /  1008.4hPa Calm     87% 0.00in /  0mm 0 W/m2
22:49 74.9 °F /  23.8 °C 70.9 °F /  21.6 °C 29.78in /  1008.4hPa Calm     87.3% 0.00in /  0mm 0 W/m2
22:54 74.9 °F /  23.8 °C 71.1 °F /  21.7 °C 29.77in /  1008hPa Calm     88% 0.00in /  0mm 0 W/m2
22:59 74.8 °F /  23.8 °C 71 °F /  21.7 °C 29.77in /  1008hPa Calm     88% 0.00in /  0mm 0 W/m2
23:04 74.8 °F /  23.8 °C 71 °F /  21.7 °C 29.77in /  1008hPa Calm     88% 0.00in /  0mm 0 W/m2
23:09 74.7 °F /  23.7 °C 70.9 °F /  21.6 °C 29.77in /  1008hPa Calm     88% 0.00in /  0mm 0 W/m2
23:14 74.6 °F /  23.7 °C 70.8 °F /  21.6 °C 29.77in /  1008hPa Calm   1mph /  1.6km/h 88% 0.00in /  0mm 0 W/m2
23:19 74.6 °F /  23.7 °C 70.8 °F /  21.6 °C 29.77in /  1008hPa Calm   1mph /  1.6km/h 88% 0.00in /  0mm 0 W/m2
23:24 74.6 °F /  23.7 °C 70.8 °F /  21.6 °C 29.77in /  1008hPa Calm   2mph /  3.2km/h 88% 0.00in /  0mm 0 W/m2
23:29 74.6 °F /  23.7 °C 70.8 °F /  21.6 °C 29.77in /  1008hPa Calm   2mph /  3.2km/h 88% 0.00in /  0mm 0 W/m2
23:34 74.6 °F /  23.7 °C 70.8 °F /  21.6 °C 29.77in /  1008hPa Calm   2mph /  3.2km/h 88% 0.00in /  0mm 0 W/m2
23:39 74.6 °F /  23.7 °C 70.8 °F /  21.6 °C 29.77in /  1008hPa Calm   1mph /  1.6km/h 88% 0.00in /  0mm 0 W/m2
23:44 74.5 °F /  23.6 °C 70.8 °F /  21.6 °C 29.76in /  1007.7hPa Calm   1mph /  1.6km/h 88.2% 0.00in /  0mm 0 W/m2
23:49 74.4 °F /  23.6 °C 70.9 °F /  21.6 °C 29.76in /  1007.7hPa Calm   1mph /  1.6km/h 88.7% 0.00in /  0mm 0 W/m2
23:54 74.4 °F /  23.6 °C 70.9 °F /  21.6 °C 29.76in /  1007.7hPa Calm   2mph /  3.2km/h 89% 0.00in /  0mm 0 W/m2
23:59 74.3 °F /  23.5 °C 70.8 °F /  21.6 °C 29.77in /  1008hPa Calm   2mph /  3.2km/h 89% 0.00in /  0mm 0 W/m2
Hartford County Weather
Compliments of Weather Underground - 2 mb